sensor_id;sensor_type;location;lat;lon;timestamp;pressure;altitude;pressure_sealevel;temperature;humidity
23446;BME280;11895;48.738;9.320;2023-01-29T00:00:13;99894.28;;;3.97;100.00
23446;BME280;11895;48.738;9.320;2023-01-29T00:02:42;99893.38;;;4.02;100.00
23446;BME280;11895;48.738;9.320;2023-01-29T00:05:10;99894.31;;;3.88;100.00
23446;BME280;11895;48.738;9.320;2023-01-29T00:07:54;99894.22;;;4.06;100.00
23446;BME280;11895;48.738;9.320;2023-01-29T00:10:24;99890.69;;;4.04;100.00
23446;BME280;11895;48.738;9.320;2023-01-29T00:12:52;99888.03;;;4.04;100.00
23446;BME280;11895;48.738;9.320;2023-01-29T00:15:20;99888.91;;;4.03;100.00
23446;BME280;11895;48.738;9.320;2023-01-29T00:17:47;99885.41;;;3.85;100.00
23446;BME280;11895;48.738;9.320;2023-01-29T00:20:15;99898.72;;;3.85;100.00
23446;BME280;11895;48.738;9.320;2023-01-29T00:22:44;99893.38;;;3.99;100.00
23446;BME280;11895;48.738;9.320;2023-01-29T00:25:12;99895.13;;;4.11;100.00
23446;BME280;11895;48.738;9.320;2023-01-29T00:27:39;99896.84;;;4.27;100.00
23446;BME280;11895;48.738;9.320;2023-01-29T00:30:08;99895.97;;;4.22;100.00
23446;BME280;11895;48.738;9.320;2023-01-29T00:32:39;99895.06;;;4.20;100.00
23446;BME280;11895;48.738;9.320;2023-01-29T00:35:08;99890.66;;;4.13;100.00
23446;BME280;11895;48.738;9.320;2023-01-29T00:37:36;99885.38;;;3.98;100.00
23446;BME280;11895;48.738;9.320;2023-01-29T00:40:04;99882.69;;;4.04;100.00
23446;BME280;11895;48.738;9.320;2023-01-29T00:42:32;99880.09;;;3.92;100.00
23446;BME280;11895;48.738;9.320;2023-01-29T00:45:18;99888.88;;;4.17;100.00
23446;BME280;11895;48.738;9.320;2023-01-29T00:47:46;99882.63;;;4.24;100.00
23446;BME280;11895;48.738;9.320;2023-01-29T00:50:14;99887.13;;;4.11;100.00
23446;BME280;11895;48.738;9.320;2023-01-29T00:52:42;99882.69;;;4.07;100.00
23446;BME280;11895;48.738;9.320;2023-01-29T00:55:16;99884.44;;;4.12;100.00
23446;BME280;11895;48.738;9.320;2023-01-29T00:57:43;99892.44;;;4.14;100.00
23446;BME280;11895;48.738;9.320;2023-01-29T01:00:13;99890.69;;;4.11;100.00
23446;BME280;11895;48.738;9.320;2023-01-29T01:02:43;99884.44;;;4.14;100.00
23446;BME280;11895;48.738;9.320;2023-01-29T01:05:29;99880.03;;;4.01;100.00
23446;BME280;11895;48.738;9.320;2023-01-29T01:07:57;99884.50;;;3.94;100.00
23446;BME280;11895;48.738;9.320;2023-01-29T01:10:29;99883.63;;;3.97;100.00
23446;BME280;11895;48.738;9.320;2023-01-29T01:13:04;99885.34;;;4.04;100.00
23446;BME280;11895;48.738;9.320;2023-01-29T01:15:38;99886.25;;;3.95;100.00
23446;BME280;11895;48.738;9.320;2023-01-29T01:18:07;99887.13;;;4.05;100.00
23446;BME280;11895;48.738;9.320;2023-01-29T01:20:35;99881.88;;;3.74;100.00
23446;BME280;11895;48.738;9.320;2023-01-29T01:23:03;99871.19;;;3.90;100.00
23446;BME280;11895;48.738;9.320;2023-01-29T01:25:31;99880.00;;;4.05;100.00
23446;BME280;11895;48.738;9.320;2023-01-29T01:28:00;99874.72;;;4.02;100.00
23446;BME280;11895;48.738;9.320;2023-01-29T01:30:27;99878.31;;;3.84;100.00
23446;BME280;11895;48.738;9.320;2023-01-29T01:32:55;99878.28;;;3.98;100.00
23446;BME280;11895;48.738;9.320;2023-01-29T01:35:23;99880.97;;;3.89;100.00
23446;BME280;11895;48.738;9.320;2023-01-29T01:37:50;99880.09;;;3.82;100.00
23446;BME280;11895;48.738;9.320;2023-01-29T01:40:20;99876.50;;;4.02;100.00
23446;BME280;11895;48.738;9.320;2023-01-29T01:42:55;99880.88;;;4.10;100.00
23446;BME280;11895;48.738;9.320;2023-01-29T01:50:58;99877.34;;;4.04;100.00
23446;BME280;11895;48.738;9.320;2023-01-29T01:53:36;99868.50;;;3.94;100.00
23446;BME280;11895;48.738;9.320;2023-01-29T01:56:16;99865.78;;;4.11;100.00
23446;BME280;11895;48.738;9.320;2023-01-29T01:58:56;99866.66;;;4.15;100.00
23446;BME280;11895;48.738;9.320;2023-01-29T02:01:26;99867.53;;;4.21;100.00
23446;BME280;11895;48.738;9.320;2023-01-29T02:04:02;99878.22;;;4.12;100.00
23446;BME280;11895;48.738;9.320;2023-01-29T02:06:52;99873.75;;;4.14;100.00
23446;BME280;11895;48.738;9.320;2023-01-29T02:10:34;99875.53;;;4.15;100.00
23446;BME280;11895;48.738;9.320;2023-01-29T02:12:37;99867.63;;;3.94;100.00
23446;BME280;11895;48.738;9.320;2023-01-29T02:15:06;99876.50;;;3.90;100.00
23446;BME280;11895;48.738;9.320;2023-01-29T02:17:35;99872.97;;;3.81;100.00
23446;BME280;11895;48.738;9.320;2023-01-29T02:25:46;99884.53;;;3.80;100.00
23446;BME280;11895;48.738;9.320;2023-01-29T02:28:46;99880.97;;;3.86;100.00
23446;BME280;11895;48.738;9.320;2023-01-29T02:31:35;99882.72;;;3.95;100.00
23446;BME280;11895;48.738;9.320;2023-01-29T02:37:09;99888.97;;;3.84;100.00
23446;BME280;11895;48.738;9.320;2023-01-29T02:39:56;99891.63;;;3.86;100.00
23446;BME280;11895;48.738;9.320;2023-01-29T02:42:50;99887.16;;;3.90;100.00
23446;BME280;11895;48.738;9.320;2023-01-29T02:48:56;99890.72;;;3.85;100.00
23446;BME280;11895;48.738;9.320;2023-01-29T02:51:42;99896.09;;;3.70;100.00
23446;BME280;11895;48.738;9.320;2023-01-29T02:54:20;99880.09;;;3.76;100.00
23446;BME280;11895;48.738;9.320;2023-01-29T02:57:28;99889.88;;;3.83;100.00
23446;BME280;11895;48.738;9.320;2023-01-29T03:00:15;99890.75;;;3.79;100.00
23446;BME280;11895;48.738;9.320;2023-01-29T03:02:52;99887.22;;;3.71;100.00
23446;BME280;11895;48.738;9.320;2023-01-29T03:05:33;99889.00;;;3.60;100.00
23446;BME280;11895;48.738;9.320;2023-01-29T03:08:14;99881.91;;;3.59;100.00
23446;BME280;11895;48.738;9.320;2023-01-29T03:10:54;99882.78;;;3.70;100.00
23446;BME280;11895;48.738;9.320;2023-01-29T03:19:40;99882.75;;;3.67;100.00
23446;BME280;11895;48.738;9.320;2023-01-29T03:22:17;99885.47;;;3.59;100.00
23446;BME280;11895;48.738;9.320;2023-01-29T03:24:57;99876.59;;;3.28;100.00
23446;BME280;11895;48.738;9.320;2023-01-29T03:27:56;99885.44;;;3.67;100.00
23446;BME280;11895;48.738;9.320;2023-01-29T03:30:59;99884.56;;;3.77;100.00
23446;BME280;11895;48.738;9.320;2023-01-29T03:34:01;99878.34;;;3.57;100.00
23446;BME280;11895;48.738;9.320;2023-01-29T03:36:46;99886.34;;;3.63;100.00
23446;BME280;11895;48.738;9.320;2023-01-29T03:39:25;99881.88;;;3.76;100.00
23446;BME280;11895;48.738;9.320;2023-01-29T03:45:48;99869.44;;;3.76;100.00
23446;BME280;11895;48.738;9.320;2023-01-29T03:48:26;99878.34;;;3.57;100.00
23446;BME280;11895;48.738;9.320;2023-01-29T03:51:29;99881.03;;;3.51;100.00
23446;BME280;11895;48.738;9.320;2023-01-29T03:54:17;99877.47;;;3.43;100.00
23446;BME280;11895;48.738;9.320;2023-01-29T03:57:00;99881.91;;;3.65;100.00
23446;BME280;11895;48.738;9.320;2023-01-29T03:59:53;99887.22;;;3.77;100.00
23446;BME280;11895;48.738;9.320;2023-01-29T04:03:38;99883.63;;;3.81;100.00
23446;BME280;11895;48.738;9.320;2023-01-29T04:06:22;99878.34;;;3.69;100.00
23446;BME280;11895;48.738;9.320;2023-01-29T04:11:54;99885.41;;;3.79;100.00
23446;BME280;11895;48.738;9.320;2023-01-29T04:14:42;99881.00;;;3.74;100.00
23446;BME280;11895;48.738;9.320;2023-01-29T04:17:22;99887.25;;;3.64;100.00
23446;BME280;11895;48.738;9.320;2023-01-29T04:20:02;99886.31;;;3.72;100.00
23446;BME280;11895;48.738;9.320;2023-01-29T04:22:33;99888.13;;;3.58;100.00
23446;BME280;11895;48.738;9.320;2023-01-29T04:25:15;99883.66;;;3.71;100.00
23446;BME280;11895;48.738;9.320;2023-01-29T04:28:12;99883.59;;;3.91;100.00
23446;BME280;11895;48.738;9.320;2023-01-29T04:31:02;99896.03;;;3.95;100.00
23446;BME280;11895;48.738;9.320;2023-01-29T04:39:35;99890.69;;;4.04;100.00
23446;BME280;11895;48.738;9.320;2023-01-29T04:42:11;99889.00;;;3.78;100.00
23446;BME280;11895;48.738;9.320;2023-01-29T04:45:00;99884.53;;;3.76;100.00
23446;BME280;11895;48.738;9.320;2023-01-29T04:47:57;99889.88;;;3.57;100.00
23446;BME280;11895;48.738;9.320;2023-01-29T04:59:13;99877.44;;;3.70;100.00
23446;BME280;11895;48.738;9.320;2023-01-29T05:01:45;99878.31;;;3.75;100.00
23446;BME280;11895;48.738;9.320;2023-01-29T05:04:16;99887.22;;;3.74;100.00
23446;BME280;11895;48.738;9.320;2023-01-29T05:06:49;99882.78;;;3.73;100.00
23446;BME280;11895;48.738;9.320;2023-01-29T05:09:18;99885.41;;;3.79;100.00
23446;BME280;11895;48.738;9.320;2023-01-29T05:11:47;99886.34;;;3.68;100.00
23446;BME280;11895;48.738;9.320;2023-01-29T05:14:20;99886.34;;;3.68;100.00
23446;BME280;11895;48.738;9.320;2023-01-29T05:16:53;99889.88;;;3.73;100.00
23446;BME280;11895;48.738;9.320;2023-01-29T05:19:22;99885.41;;;3.79;100.00
23446;BME280;11895;48.738;9.320;2023-01-29T05:21:50;99888.09;;;3.87;100.00
23446;BME280;11895;48.738;9.320;2023-01-29T05:24:20;99892.53;;;3.83;100.00
23446;BME280;11895;48.738;9.320;2023-01-29T05:26:52;99890.72;;;3.95;100.00
23446;BME280;11895;48.738;9.320;2023-01-29T05:29:44;99886.34;;;3.57;100.00
23446;BME280;11895;48.738;9.320;2023-01-29T05:32:13;99881.94;;;3.44;100.00
23446;BME280;11895;48.738;9.320;2023-01-29T05:34:42;99899.69;;;3.26;100.00
23446;BME280;11895;48.738;9.320;2023-01-29T05:37:10;99898.81;;;3.35;100.00
23446;BME280;11895;48.738;9.320;2023-01-29T05:39:37;99894.34;;;3.42;100.00
23446;BME280;11895;48.738;9.320;2023-01-29T05:42:05;99894.34;;;3.48;100.00
23446;BME280;11895;48.738;9.320;2023-01-29T05:44:33;99888.13;;;3.61;100.00
23446;BME280;11895;48.738;9.320;2023-01-29T05:47:00;99881.91;;;3.68;100.00
23446;BME280;11895;48.738;9.320;2023-01-29T05:49:31;99881.88;;;3.77;100.00
23446;BME280;11895;48.738;9.320;2023-01-29T05:51:58;99884.53;;;3.83;100.00
23446;BME280;11895;48.738;9.320;2023-01-29T05:54:26;99886.34;;;3.63;100.00
23446;BME280;11895;48.738;9.320;2023-01-29T05:56:55;99871.25;;;3.59;100.00
23446;BME280;11895;48.738;9.320;2023-01-29T05:59:22;99861.44;;;3.76;100.00
23446;BME280;11895;48.738;9.320;2023-01-29T06:01:50;99843.72;;;3.60;100.00
23446;BME280;11895;48.738;9.320;2023-01-29T06:04:18;99843.72;;;3.43;100.00
23446;BME280;11895;48.738;9.320;2023-01-29T06:06:45;99841.09;;;3.29;100.00
23446;BME280;11895;48.738;9.320;2023-01-29T06:09:13;99833.13;;;3.13;100.00
23446;BME280;11895;48.738;9.320;2023-01-29T06:11:41;99851.75;;;3.26;100.00
23446;BME280;11895;48.738;9.320;2023-01-29T06:14:09;99860.59;;;2.95;100.00
23446;BME280;11895;48.738;9.320;2023-01-29T06:16:36;99860.63;;;3.04;100.00
23446;BME280;11895;48.738;9.320;2023-01-29T06:19:04;99852.66;;;3.10;100.00
23446;BME280;11895;48.738;9.320;2023-01-29T06:21:32;99857.06;;;3.14;100.00
23446;BME280;11895;48.738;9.320;2023-01-29T06:23:59;99861.50;;;3.33;100.00
23446;BME280;11895;48.738;9.320;2023-01-29T06:26:28;99862.41;;;3.20;100.00
23446;BME280;11895;48.738;9.320;2023-01-29T06:28:55;99871.28;;;3.36;100.00
23446;BME280;11895;48.738;9.320;2023-01-29T06:31:23;99871.25;;;3.50;100.00
23446;BME280;11895;48.738;9.320;2023-01-29T06:34:06;99883.69;;;3.57;100.00
23446;BME280;11895;48.738;9.320;2023-01-29T06:36:35;99874.78;;;3.63;100.00
23446;BME280;11895;48.738;9.320;2023-01-29T06:39:03;99874.81;;;3.47;100.00
23446;BME280;11895;48.738;9.320;2023-01-29T06:41:31;99875.69;;;3.55;100.00
23446;BME280;11895;48.738;9.320;2023-01-29T06:43:58;99867.72;;;3.63;100.00
23446;BME280;11895;48.738;9.320;2023-01-29T06:46:26;99878.34;;;3.69;100.00
23446;BME280;11895;48.738;9.320;2023-01-29T06:48:56;99882.78;;;3.78;100.00
23446;BME280;11895;48.738;9.320;2023-01-29T06:51:25;99883.66;;;3.74;100.00
23446;BME280;11895;48.738;9.320;2023-01-29T06:53:53;99880.97;;;3.72;100.00
23446;BME280;11895;48.738;9.320;2023-01-29T06:56:23;99882.81;;;3.37;100.00
23446;BME280;11895;48.738;9.320;2023-01-29T06:58:51;99881.00;;;3.57;100.00
23446;BME280;11895;48.738;9.320;2023-01-29T07:01:19;99887.22;;;3.62;100.00
23446;BME280;11895;48.738;9.320;2023-01-29T07:04:02;99888.13;;;3.55;100.00
23446;BME280;11895;48.738;9.320;2023-01-29T07:06:30;99894.31;;;3.57;100.00
23446;BME280;11895;48.738;9.320;2023-01-29T07:08:58;99904.09;;;3.66;100.00
23446;BME280;11895;48.738;9.320;2023-01-29T07:11:26;99904.97;;;3.74;100.00
23446;BME280;11895;48.738;9.320;2023-01-29T07:13:56;99896.06;;;3.85;100.00
23446;BME280;11895;48.738;9.320;2023-01-29T07:16:24;99888.09;;;3.76;100.00
23446;BME280;11895;48.738;9.320;2023-01-29T07:18:52;99895.19;;;3.71;100.00
23446;BME280;11895;48.738;9.320;2023-01-29T07:21:20;99893.44;;;3.63;100.00
23446;BME280;11895;48.738;9.320;2023-01-29T07:23:48;99898.78;;;3.64;100.00
23446;BME280;11895;48.738;9.320;2023-01-29T07:26:19;99899.66;;;3.66;100.00
23446;BME280;11895;48.738;9.320;2023-01-29T07:28:46;99900.53;;;3.67;100.00
23446;BME280;11895;48.738;9.320;2023-01-29T07:31:15;99910.31;;;3.78;100.00
23446;BME280;11895;48.738;9.320;2023-01-29T07:33:43;99904.09;;;3.73;100.00
23446;BME280;11895;48.738;9.320;2023-01-29T07:36:12;99908.53;;;3.79;100.00
23446;BME280;11895;48.738;9.320;2023-01-29T07:38:41;99906.78;;;3.58;100.00
23446;BME280;11895;48.738;9.320;2023-01-29T07:41:10;99915.66;;;3.69;100.00
23446;BME280;11895;48.738;9.320;2023-01-29T07:43:38;99915.59;;;3.91;100.00
23446;BME280;11895;48.738;9.320;2023-01-29T07:46:08;99914.72;;;3.85;100.00
23446;BME280;11895;48.738;9.320;2023-01-29T07:48:36;99922.75;;;3.82;100.00
23446;BME280;11895;48.738;9.320;2023-01-29T07:51:03;99919.16;;;3.90;100.00
23446;BME280;11895;48.738;9.320;2023-01-29T07:53:31;99918.25;;;3.91;100.00
23446;BME280;11895;48.738;9.320;2023-01-29T07:55:59;99919.16;;;3.86;100.00
23446;BME280;11895;48.738;9.320;2023-01-29T07:58:27;99921.84;;;3.80;100.00
23446;BME280;11895;48.738;9.320;2023-01-29T08:00:57;99922.69;;;3.95;100.00
23446;BME280;11895;48.738;9.320;2023-01-29T08:03:25;99927.13;;;4.11;100.00
23446;BME280;11895;48.738;9.320;2023-01-29T08:05:52;99928.97;;;3.66;100.00
23446;BME280;11895;48.738;9.320;2023-01-29T08:08:20;99938.72;;;3.85;100.00
23446;BME280;11895;48.738;9.320;2023-01-29T08:10:48;99928.00;;;4.04;100.00
23446;BME280;11895;48.738;9.320;2023-01-29T08:13:16;99922.72;;;3.89;100.00
23446;BME280;11895;48.738;9.320;2023-01-29T08:15:46;99923.59;;;3.95;100.00
23446;BME280;11895;48.738;9.320;2023-01-29T08:18:14;99923.53;;;4.15;100.00
23446;BME280;11895;48.738;9.320;2023-01-29T08:20:42;99917.28;;;4.25;100.00
23446;BME280;11895;48.738;9.320;2023-01-29T08:23:13;99910.09;;;4.43;100.00
23446;BME280;11895;48.738;9.320;2023-01-29T08:25:42;99919.09;;;4.16;100.00
23446;BME280;11895;48.738;9.320;2023-01-29T08:28:10;99920.06;;;3.93;100.00
23446;BME280;11895;48.738;9.320;2023-01-29T08:30:39;99938.72;;;3.92;100.00
23446;BME280;11895;48.738;9.320;2023-01-29T08:33:06;99936.00;;;4.05;100.00
23446;BME280;11895;48.738;9.320;2023-01-29T08:35:34;99944.03;;;3.85;100.00
23446;BME280;11895;48.738;9.320;2023-01-29T08:38:03;99940.47;;;3.90;100.00
23446;BME280;11895;48.738;9.320;2023-01-29T08:40:31;99946.72;;;3.93;100.00
23446;BME280;11895;48.738;9.320;2023-01-29T08:43:02;99952.94;;;3.69;100.00
23446;BME280;11895;48.738;9.320;2023-01-29T08:45:36;99952.06;;;3.73;100.00
23446;BME280;11895;48.738;9.320;2023-01-29T08:48:05;99937.84;;;3.62;100.00
23446;BME280;11895;48.738;9.320;2023-01-29T08:50:33;99943.16;;;3.80;100.00
23446;BME280;11895;48.738;9.320;2023-01-29T08:53:05;99945.81;;;3.86;100.00
23446;BME280;11895;48.738;9.320;2023-01-29T08:55:38;99953.78;;;4.03;100.00
23446;BME280;11895;48.738;9.320;2023-01-29T08:58:08;99961.75;;;4.26;100.00
23446;BME280;11895;48.738;9.320;2023-01-29T09:00:37;99967.00;;;4.45;100.00
23446;BME280;11895;48.738;9.320;2023-01-29T09:03:05;99961.63;;;4.60;100.00
23446;BME280;11895;48.738;9.320;2023-01-29T09:05:35;99957.13;;;4.74;100.00
23446;BME280;11895;48.738;9.320;2023-01-29T09:08:06;99960.72;;;4.58;100.00
23446;BME280;11895;48.738;9.320;2023-01-29T09:10:34;99956.38;;;4.35;100.00
23446;BME280;11895;48.738;9.320;2023-01-29T09:13:03;99958.19;;;4.30;100.00
23446;BME280;11895;48.738;9.320;2023-01-29T09:15:31;99954.59;;;4.34;100.00
23446;BME280;11895;48.738;9.320;2023-01-29T09:18:02;99965.22;;;4.47;100.00
23446;BME280;11895;48.738;9.320;2023-01-29T09:20:31;99972.28;;;4.63;100.00
23446;BME280;11895;48.738;9.320;2023-01-29T09:23:04;99965.19;;;4.53;100.00
23446;BME280;11895;48.738;9.320;2023-01-29T09:25:33;99967.91;;;4.50;100.00
23446;BME280;11895;48.738;9.320;2023-01-29T09:28:00;99957.25;;;4.37;100.00
23446;BME280;11895;48.738;9.320;2023-01-29T09:30:28;99961.75;;;4.23;100.00
23446;BME280;11895;48.738;9.320;2023-01-29T09:32:56;99962.59;;;4.34;100.00
23446;BME280;11895;48.738;9.320;2023-01-29T09:35:26;99960.81;;;4.46;100.00
23446;BME280;11895;48.738;9.320;2023-01-29T09:37:54;99968.84;;;4.29;100.00
23446;BME280;11895;48.738;9.320;2023-01-29T09:40:34;99966.13;;;4.46;100.00
23446;BME280;11895;48.738;9.320;2023-01-29T09:43:20;99963.31;;;4.79;100.00
23446;BME280;11895;48.738;9.320;2023-01-29T09:46:03;99966.78;;;4.95;100.00
23446;BME280;11895;48.738;9.320;2023-01-29T09:48:35;99967.56;;;5.19;98.51
23446;BME280;11895;48.738;9.320;2023-01-29T09:51:10;99959.38;;;5.41;93.15
23446;BME280;11895;48.738;9.320;2023-01-29T09:54:10;99955.69;;;5.55;92.33
23446;BME280;11895;48.738;9.320;2023-01-29T09:57:11;99951.31;;;5.45;93.48
23446;BME280;11895;48.738;9.320;2023-01-29T09:59:44;99941.34;;;5.65;95.66
23446;BME280;11895;48.738;9.320;2023-01-29T10:02:47;99940.75;;;5.29;91.86
23446;BME280;11895;48.738;9.320;2023-01-29T10:11:24;99907.97;;;5.06;93.67
23446;BME280;11895;48.738;9.320;2023-01-29T10:25:18;99886.88;;;4.66;95.83
23446;BME280;11895;48.738;9.320;2023-01-29T10:27:52;99894.94;;;4.54;100.00
23446;BME280;11895;48.738;9.320;2023-01-29T10:30:37;99896.69;;;4.61;100.00
23446;BME280;11895;48.738;9.320;2023-01-29T10:33:15;99895.66;;;4.86;100.00
23446;BME280;11895;48.738;9.320;2023-01-29T10:35:55;99898.44;;;4.65;100.00
23446;BME280;11895;48.738;9.320;2023-01-29T10:38:43;99899.22;;;4.82;99.28
23446;BME280;11895;48.738;9.320;2023-01-29T10:41:39;99898.81;;;5.40;96.99
23446;BME280;11895;48.738;9.320;2023-01-29T10:50:50;99904.13;;;5.47;96.51
23446;BME280;11895;48.738;9.320;2023-01-29T10:53:44;99899.84;;;5.23;94.79
23446;BME280;11895;48.738;9.320;2023-01-29T10:57:06;99887.53;;;5.03;97.24
23446;BME280;11895;48.738;9.320;2023-01-29T11:02:18;99889.66;;;4.42;100.00
23446;BME280;11895;48.738;9.320;2023-01-29T11:04:48;99888.44;;;5.01;100.00
23446;BME280;11895;48.738;9.320;2023-01-29T11:07:18;99891.78;;;5.32;94.08
23446;BME280;11895;48.738;9.320;2023-01-29T11:10:13;99889.78;;;5.54;95.21
23446;BME280;11895;48.738;9.320;2023-01-29T11:12:42;99893.13;;;5.80;92.58
23446;BME280;11895;48.738;9.320;2023-01-29T11:15:25;99887.31;;;6.23;91.08
23446;BME280;11895;48.738;9.320;2023-01-29T11:18:11;99885.47;;;6.28;85.12
23446;BME280;11895;48.738;9.320;2023-01-29T11:20:42;99884.34;;;5.66;88.46
23446;BME280;11895;48.738;9.320;2023-01-29T11:23:40;99881.72;;;5.60;90.07
23446;BME280;11895;48.738;9.320;2023-01-29T11:26:12;99878.22;;;5.50;89.71
23446;BME280;11895;48.738;9.320;2023-01-29T11:28:48;99863.03;;;5.57;88.75
23446;BME280;11895;48.738;9.320;2023-01-29T11:31:26;99866.50;;;5.66;89.79
23446;BME280;11895;48.738;9.320;2023-01-29T11:34:15;99867.13;;;5.96;84.83
23446;BME280;11895;48.738;9.320;2023-01-29T11:36:45;99875.94;;;6.03;85.33
23446;BME280;11895;48.738;9.320;2023-01-29T11:39:24;99860.59;;;6.20;81.54
23446;BME280;11895;48.738;9.320;2023-01-29T11:42:01;99858.69;;;6.31;87.23
23446;BME280;11895;48.738;9.320;2023-01-29T11:44:56;99855.44;;;6.03;82.69
23446;BME280;11895;48.738;9.320;2023-01-29T11:47:28;99840.63;;;5.72;87.20
23446;BME280;11895;48.738;9.320;2023-01-29T11:50:00;99835.22;;;5.75;85.45
23446;BME280;11895;48.738;9.320;2023-01-29T11:52:38;99850.22;;;5.89;82.73
23446;BME280;11895;48.738;9.320;2023-01-29T11:55:22;99852.03;;;5.87;83.14
23446;BME280;11895;48.738;9.320;2023-01-29T12:00:48;99849.25;;;5.98;83.97
23446;BME280;11895;48.738;9.320;2023-01-29T12:03:40;99835.69;;;6.15;81.66
23446;BME280;11895;48.738;9.320;2023-01-29T12:06:26;99840.78;;;6.33;83.85
23446;BME280;11895;48.738;9.320;2023-01-29T12:09:01;99823.56;;;6.56;79.94
23446;BME280;11895;48.738;9.320;2023-01-29T12:11:37;99821.31;;;6.87;84.16
23446;BME280;11895;48.738;9.320;2023-01-29T12:17:20;99812.50;;;6.79;77.33
23446;BME280;11895;48.738;9.320;2023-01-29T12:20:03;99804.03;;;7.05;80.88
23446;BME280;11895;48.738;9.320;2023-01-29T12:26:06;99778.94;;;5.91;90.60
23446;BME280;11895;48.738;9.320;2023-01-29T12:29:02;99766.53;;;7.05;87.87
23446;BME280;11895;48.738;9.320;2023-01-29T12:35:11;99747.66;;;6.60;78.75
23446;BME280;11895;48.738;9.320;2023-01-29T12:38:01;99737.41;;;6.85;77.65
23446;BME280;11895;48.738;9.320;2023-01-29T12:40:39;99732.88;;;6.91;78.25
23446;BME280;11895;48.738;9.320;2023-01-29T12:43:52;99728.31;;;5.73;83.71
23446;BME280;11895;48.738;9.320;2023-01-29T12:46:27;99714.16;;;6.34;86.06
23446;BME280;11895;48.738;9.320;2023-01-29T12:49:00;99712.41;;;7.35;79.43
23446;BME280;11895;48.738;9.320;2023-01-29T12:51:37;99712.91;;;7.97;70.27
23446;BME280;11895;48.738;9.320;2023-01-29T12:54:16;99707.28;;;8.10;71.52
23446;BME280;11895;48.738;9.320;2023-01-29T12:56:48;99713.38;;;8.18;64.81
23446;BME280;11895;48.738;9.320;2023-01-29T12:59:32;99704.72;;;8.81;66.12
23446;BME280;11895;48.738;9.320;2023-01-29T13:05:45;99705.66;;;8.03;66.75
23446;BME280;11895;48.738;9.320;2023-01-29T13:08:50;99695.38;;;8.62;66.38
23446;BME280;11895;48.738;9.320;2023-01-29T13:12:10;99693.06;;;8.82;61.36
23446;BME280;11895;48.738;9.320;2023-01-29T13:18:19;99680.81;;;9.37;58.03
23446;BME280;11895;48.738;9.320;2023-01-29T13:20:50;99679.06;;;9.36;58.39
23446;BME280;11895;48.738;9.320;2023-01-29T13:23:24;99679.50;;;9.21;58.74
23446;BME280;11895;48.738;9.320;2023-01-29T13:26:03;99669.91;;;9.11;56.65
23446;BME280;11895;48.738;9.320;2023-01-29T13:28:32;99670.06;;;9.37;62.35
23446;BME280;11895;48.738;9.320;2023-01-29T13:34:14;99676.13;;;8.79;62.13
23446;BME280;11895;48.738;9.320;2023-01-29T13:36:47;99673.94;;;8.59;64.56
23446;BME280;11895;48.738;9.320;2023-01-29T13:39:31;99681.44;;;8.82;66.15
23446;BME280;11895;48.738;9.320;2023-01-29T13:42:14;99676.66;;;9.58;58.92
23446;BME280;11895;48.738;9.320;2023-01-29T13:44:56;99683.75;;;10.20;57.41
23446;BME280;11895;48.738;9.320;2023-01-29T13:47:40;99680.41;;;10.13;54.65
23446;BME280;11895;48.738;9.320;2023-01-29T13:55:33;99678.50;;;9.87;53.15
23446;BME280;11895;48.738;9.320;2023-01-29T14:01:01;99682.06;;;9.25;54.97
23446;BME280;11895;48.738;9.320;2023-01-29T14:06:42;99684.41;;;8.32;61.73
23446;BME280;11895;48.738;9.320;2023-01-29T14:09:30;99684.53;;;8.28;63.28
23446;BME280;11895;48.738;9.320;2023-01-29T14:11:59;99685.91;;;8.45;64.02
23446;BME280;11895;48.738;9.320;2023-01-29T14:17:16;99693.16;;;8.02;65.40
23446;BME280;11895;48.738;9.320;2023-01-29T14:19:50;99687.66;;;7.66;67.69
23446;BME280;11895;48.738;9.320;2023-01-29T14:22:24;99688.31;;;7.77;73.19
23446;BME280;11895;48.738;9.320;2023-01-29T14:25:02;99682.94;;;7.77;70.37
23446;BME280;11895;48.738;9.320;2023-01-29T14:27:32;99684.13;;;7.64;67.15
23446;BME280;11895;48.738;9.320;2023-01-29T14:30:05;99679.19;;;6.98;72.15
23446;BME280;11895;48.738;9.320;2023-01-29T14:32:38;99676.03;;;7.22;74.00
23446;BME280;11895;48.738;9.320;2023-01-29T14:35:33;99667.50;;;7.00;74.35
23446;BME280;11895;48.738;9.320;2023-01-29T14:38:07;99667.28;;;6.63;80.76
23446;BME280;11895;48.738;9.320;2023-01-29T14:40:41;99666.25;;;6.70;80.01
23446;BME280;11895;48.738;9.320;2023-01-29T14:43:19;99669.97;;;6.61;84.13
23446;BME280;11895;48.738;9.320;2023-01-29T14:45:48;99671.09;;;6.99;78.34
23446;BME280;11895;48.738;9.320;2023-01-29T14:48:37;99679.63;;;7.19;74.69
23446;BME280;11895;48.738;9.320;2023-01-29T14:51:07;99680.19;;;7.38;73.07
23446;BME280;11895;48.738;9.320;2023-01-29T14:54:01;99680.44;;;7.26;71.92
23446;BME280;11895;48.738;9.320;2023-01-29T14:57:02;99671.25;;;6.39;86.99
23446;BME280;11895;48.738;9.320;2023-01-29T14:59:36;99663.53;;;7.22;77.32
23446;BME280;11895;48.738;9.320;2023-01-29T15:02:36;99662.47;;;6.83;82.23
23446;BME280;11895;48.738;9.320;2023-01-29T15:05:20;99662.00;;;7.53;78.38
23446;BME280;11895;48.738;9.320;2023-01-29T15:10:59;99656.53;;;9.09;59.76
23446;BME280;11895;48.738;9.320;2023-01-29T15:16:55;99666.09;;;11.20;51.14
23446;BME280;11895;48.738;9.320;2023-01-29T15:19:36;99659.78;;;10.68;49.55
23446;BME280;11895;48.738;9.320;2023-01-29T15:22:13;99651.97;;;10.61;52.06
23446;BME280;11895;48.738;9.320;2023-01-29T15:25:12;99652.81;;;10.89;50.19
23446;BME280;11895;48.738;9.320;2023-01-29T15:27:44;99654.91;;;9.95;51.26
23446;BME280;11895;48.738;9.320;2023-01-29T15:30:18;99656.66;;;9.67;55.35
23446;BME280;11895;48.738;9.320;2023-01-29T15:32:49;99656.44;;;9.74;53.74
23446;BME280;11895;48.738;9.320;2023-01-29T15:38:01;99655.34;;;9.50;53.74
23446;BME280;11895;48.738;9.320;2023-01-29T15:40:34;99654.22;;;8.95;56.06
23446;BME280;11895;48.738;9.320;2023-01-29T15:43:11;99661.25;;;8.28;60.74
23446;BME280;11895;48.738;9.320;2023-01-29T15:45:50;99655.88;;;7.88;64.07